メインページ
METAR-TAF:

METAR-TAF

空港 :

Penn Yan Airport

Penn Yan, ニューヨーク, アメリカ合衆国

緯度: 42-38-35N, 経度: 077-02-58W, 海抜: 275m

現時点の気象観測

当レポートは11分前の13:53(UTC)に作成
西の風 14kt、最大23ktの突風を伴う
気温 2°C
湿度 69%
気圧 1006 hPa
視程: 16.1km
高度2800ftの雲は散在している
高度3400ftの千切れ雲あり
高度6500ftの曇り

METAR: KPEO 151353Z AUTO 27014G23KT 10SM SCT028 BKN034 OVC065 02/M03 A2972 RMK AO2 SNB00E09 SLP074 P0000 T00221033 $

時間: 09:04 (14:04 UTC)


TAF: 見つかりません

4,000以上の空港の気象観測と天気予報(METAR報とTAF報)

利用可能な観測所は地図上に黄色い丸と赤い丸で示す。

丸の上にカーソルを重ねると観測所名を参照できる。

次にクリックすると気象観測と天気予報を参照できる。

マップの切り替え:黒色「×」印の緑ボタンをクリックして拡大、「-」印の緑ボタンをクリックして縮小、緑色の三角印をクリックして隣りの地図に切り替え


METAR-TAF: